createdAt,value
2023-02-18T00:00:24.267Z,16.52
2023-02-18T00:02:52.815Z,15.80
2023-02-18T00:05:20.444Z,15.50
2023-02-18T00:07:47.938Z,17.60
2023-02-18T00:10:16.371Z,17.48
2023-02-18T00:12:44.239Z,16.38
2023-02-18T00:15:11.645Z,17.13
2023-02-18T00:17:39.121Z,16.27
2023-02-18T00:20:07.293Z,16.13
2023-02-18T00:22:34.862Z,16.52
2023-02-18T00:25:02.308Z,16.23
2023-02-18T00:27:29.883Z,16.25
2023-02-18T00:29:59.065Z,15.52
2023-02-18T00:32:26.983Z,15.68
2023-02-18T00:34:54.419Z,15.13
2023-02-18T00:37:21.902Z,14.90
2023-02-18T00:39:49.304Z,15.77
2023-02-18T00:42:16.809Z,15.27
2023-02-18T00:44:44.225Z,15.23
2023-02-18T00:47:11.877Z,16.13
2023-02-18T00:49:39.366Z,15.32
2023-02-18T00:52:07.917Z,14.75
2023-02-18T00:54:35.393Z,14.75
2023-02-18T00:57:02.997Z,15.00
2023-02-18T00:59:30.404Z,14.20
2023-02-18T01:01:57.908Z,14.90
2023-02-18T01:04:25.354Z,14.50
2023-02-18T01:06:52.857Z,14.23
2023-02-18T01:09:20.364Z,14.30
2023-02-18T01:11:47.804Z,14.02
2023-02-18T01:14:15.218Z,13.68
2023-02-18T01:16:42.720Z,13.27
2023-02-18T01:19:10.312Z,13.13
2023-02-18T01:21:39.094Z,13.95
2023-02-18T01:24:06.882Z,12.80
2023-02-18T01:26:36.008Z,12.38
2023-02-18T01:29:03.450Z,13.43
2023-02-18T01:31:31.023Z,13.38
2023-02-18T01:33:59.701Z,12.05
2023-02-18T01:36:29.677Z,12.05
2023-02-18T01:38:57.490Z,12.18
2023-02-18T01:41:25.062Z,13.30
2023-02-18T01:44:10.883Z,12.63
2023-02-18T01:46:38.405Z,11.93
2023-02-18T01:49:06.532Z,12.52
2023-02-18T01:51:39.759Z,11.73
2023-02-18T01:54:12.412Z,11.73
2023-02-18T01:56:49.447Z,11.52
2023-02-18T01:59:19.166Z,11.98
2023-02-18T02:01:46.884Z,11.85
2023-02-18T02:04:14.496Z,11.18
2023-02-18T02:06:42.117Z,11.35
2023-02-18T02:09:11.341Z,11.00
2023-02-18T02:11:41.738Z,10.43
2023-02-18T02:14:17.984Z,10.75
2023-02-18T02:16:51.078Z,11.63
2023-02-18T02:19:18.495Z,10.48
2023-02-18T02:21:45.843Z,10.43
2023-02-18T02:24:32.543Z,10.93
2023-02-18T02:26:59.950Z,10.45
2023-02-18T02:29:39.794Z,10.38
2023-02-18T02:32:13.416Z,10.02
2023-02-18T02:34:44.057Z,9.90
2023-02-18T02:37:28.079Z,9.80
2023-02-18T02:40:04.672Z,8.68
2023-02-18T02:42:41.473Z,8.85
2023-02-18T02:45:18.076Z,9.17
2023-02-18T02:47:48.765Z,8.73
2023-02-18T02:50:34.971Z,8.23
2023-02-18T02:53:06.139Z,8.45
2023-02-18T02:55:34.643Z,8.50
2023-02-18T02:58:03.048Z,9.02
2023-02-18T03:00:48.119Z,8.55
2023-02-18T03:03:27.045Z,8.68
2023-02-18T03:06:03.993Z,8.27
2023-02-18T03:08:31.440Z,8.05
2023-02-18T03:11:05.675Z,8.63
2023-02-18T03:13:53.514Z,8.18
2023-02-18T03:16:39.671Z,8.30
2023-02-18T03:19:11.070Z,8.73
2023-02-18T03:21:42.453Z,8.65
2023-02-18T03:24:14.336Z,8.57
2023-02-18T03:26:46.253Z,8.35
2023-02-18T03:29:15.222Z,8.70
2023-02-18T03:31:44.044Z,9.35
2023-02-18T03:34:26.366Z,8.02
2023-02-18T03:36:54.365Z,8.40
2023-02-18T03:39:24.048Z,8.70
2023-02-18T03:41:51.535Z,8.95
2023-02-18T03:44:18.954Z,8.48
2023-02-18T03:46:46.476Z,7.80
2023-02-18T03:49:14.966Z,8.35
2023-02-18T03:51:42.739Z,8.77
2023-02-18T03:54:10.696Z,8.00
2023-02-18T03:56:38.629Z,9.13
2023-02-18T03:59:06.018Z,8.32
2023-02-18T04:01:33.593Z,8.23
2023-02-18T04:04:01.117Z,8.73
2023-02-18T04:06:28.835Z,8.55
2023-02-18T04:08:56.222Z,8.80
2023-02-18T04:11:23.636Z,8.13
2023-02-18T04:13:51.077Z,8.18
2023-02-18T04:16:18.760Z,8.20
2023-02-18T04:18:46.194Z,7.90
2023-02-18T04:21:13.679Z,8.38
2023-02-18T04:23:41.067Z,8.65
2023-02-18T04:26:08.836Z,8.40
2023-02-18T04:28:36.540Z,8.43
2023-02-18T04:31:04.135Z,8.50
2023-02-18T04:33:31.677Z,8.18
2023-02-18T04:35:59.092Z,9.48
2023-02-18T04:38:26.582Z,8.73
2023-02-18T04:40:54.006Z,8.27
2023-02-18T04:43:21.396Z,8.02
2023-02-18T04:45:48.834Z,8.10
2023-02-18T04:48:16.280Z,8.45
2023-02-18T04:50:44.973Z,8.02
2023-02-18T04:53:12.417Z,8.20
2023-02-18T04:55:39.861Z,7.90
2023-02-18T04:58:07.338Z,7.88
2023-02-18T05:00:34.792Z,7.80
2023-02-18T05:03:02.238Z,7.93
2023-02-18T05:05:29.597Z,8.10
2023-02-18T05:07:57.105Z,8.00
2023-02-18T05:10:24.556Z,8.10
2023-02-18T05:12:52.094Z,8.02
2023-02-18T05:15:19.521Z,8.80
2023-02-18T05:17:47.117Z,8.15
2023-02-18T05:20:14.557Z,7.85
2023-02-18T05:22:42.095Z,8.52
2023-02-18T05:25:09.520Z,8.38
2023-02-18T05:27:37.041Z,10.73
2023-02-18T05:30:04.867Z,9.32
2023-02-18T05:32:32.375Z,9.30
2023-02-18T05:34:59.760Z,9.50
2023-02-18T05:37:27.216Z,8.75
2023-02-18T05:39:54.629Z,7.85
2023-02-18T05:42:23.348Z,8.23
2023-02-18T05:44:50.788Z,9.02
2023-02-18T05:47:18.528Z,10.23
2023-02-18T05:49:46.156Z,9.20
2023-02-18T05:52:13.749Z,8.35
2023-02-18T05:54:41.247Z,8.35
2023-02-18T05:57:08.903Z,7.63
2023-02-18T05:59:36.359Z,8.85
2023-02-18T06:02:03.847Z,7.97
2023-02-18T06:04:31.331Z,8.75
2023-02-18T06:06:59.175Z,7.97
2023-02-18T06:09:26.571Z,9.07
2023-02-18T06:11:53.982Z,7.45
2023-02-18T06:14:21.385Z,7.35
2023-02-18T06:16:48.853Z,7.82
2023-02-18T06:19:16.392Z,7.50
2023-02-18T06:21:44.098Z,8.05
2023-02-18T06:24:11.712Z,7.97
2023-02-18T06:26:39.170Z,7.85
2023-02-18T06:29:06.643Z,7.25
2023-02-18T06:31:34.182Z,8.13
2023-02-18T06:34:01.618Z,7.55
2023-02-18T06:36:29.099Z,7.95
2023-02-18T06:38:57.576Z,7.65
2023-02-18T06:41:25.363Z,7.28
2023-02-18T06:43:52.777Z,8.25
2023-02-18T06:46:20.317Z,14.90
2023-02-18T06:48:47.766Z,7.95
2023-02-18T06:51:16.252Z,7.63
2023-02-18T06:53:44.086Z,8.30
2023-02-18T06:56:12.142Z,7.32
2023-02-18T06:58:39.700Z,7.50
2023-02-18T07:01:07.162Z,8.13
2023-02-18T07:03:34.659Z,8.77
2023-02-18T07:06:02.254Z,7.70
2023-02-18T07:08:30.949Z,7.93
2023-02-18T07:10:58.319Z,8.60
2023-02-18T07:13:25.812Z,8.13
2023-02-18T07:15:53.197Z,7.93
2023-02-18T07:18:20.646Z,7.32
2023-02-18T07:20:48.040Z,7.63
2023-02-18T07:23:15.538Z,7.63
2023-02-18T07:25:43.028Z,7.35
2023-02-18T07:28:10.473Z,7.60
2023-02-18T07:30:37.998Z,8.07
2023-02-18T07:33:05.588Z,7.53
2023-02-18T07:35:33.189Z,7.75
2023-02-18T07:38:02.955Z,8.70
2023-02-18T07:40:30.599Z,8.60
2023-02-18T07:42:58.145Z,8.38
2023-02-18T07:45:25.635Z,7.78
2023-02-18T07:47:53.187Z,8.95
2023-02-18T07:50:20.758Z,8.40
2023-02-18T07:52:48.175Z,7.75
2023-02-18T07:55:15.629Z,7.20
2023-02-18T07:57:57.418Z,7.85
2023-02-18T08:00:25.299Z,8.23
2023-02-18T08:02:52.744Z,7.55
2023-02-18T08:05:20.317Z,8.27
2023-02-18T08:07:47.717Z,7.90
2023-02-18T08:10:15.157Z,8.02
2023-02-18T08:12:42.506Z,8.30
2023-02-18T08:15:10.371Z,8.40
2023-02-18T08:17:37.768Z,8.68
2023-02-18T08:20:05.472Z,8.20
2023-02-18T08:22:32.872Z,7.70
2023-02-18T08:25:00.311Z,8.43
2023-02-18T08:27:27.833Z,8.45
2023-02-18T08:29:56.005Z,8.25
2023-02-18T08:32:23.661Z,8.70
2023-02-18T08:34:51.111Z,8.70
2023-02-18T08:37:18.681Z,8.30
2023-02-18T08:39:46.137Z,9.02
2023-02-18T08:42:13.717Z,8.43
2023-02-18T08:44:41.129Z,8.23
2023-02-18T08:48:19.856Z,8.10
2023-02-18T08:49:56.251Z,7.65
2023-02-18T08:52:24.217Z,7.70
2023-02-18T08:54:51.802Z,7.53
2023-02-18T08:57:19.225Z,7.28
2023-02-18T08:59:46.707Z,9.93
2023-02-18T09:02:14.596Z,7.70
2023-02-18T09:04:42.073Z,7.53
2023-02-18T09:07:09.491Z,7.10
2023-02-18T09:09:37.099Z,6.57
2023-02-18T09:12:04.624Z,7.13
2023-02-18T09:14:32.477Z,8.52
2023-02-18T09:16:59.866Z,7.15
2023-02-18T09:19:27.418Z,8.60
2023-02-18T09:21:54.878Z,7.20
2023-02-18T09:24:22.450Z,6.90
2023-02-18T09:26:49.909Z,6.97
2023-02-18T09:29:19.893Z,6.40
2023-02-18T09:31:47.536Z,7.47
2023-02-18T09:34:15.020Z,7.15
2023-02-18T09:36:42.431Z,6.95
2023-02-18T09:39:11.620Z,6.80
2023-02-18T09:41:43.765Z,6.70
2023-02-18T09:44:11.197Z,6.55
2023-02-18T09:46:41.644Z,8.05
2023-02-18T09:49:15.320Z,7.55
2023-02-18T09:51:43.107Z,6.32
2023-02-18T09:54:12.838Z,6.93
2023-02-18T09:56:41.545Z,6.80
2023-02-18T09:59:13.411Z,6.75
2023-02-18T10:01:41.426Z,6.38
2023-02-18T10:04:21.195Z,6.75
2023-02-18T10:06:49.750Z,6.53
2023-02-18T10:09:20.727Z,7.32
2023-02-18T10:11:57.412Z,14.05
2023-02-18T10:14:25.682Z,7.45
2023-02-18T10:16:53.790Z,6.50
2023-02-18T10:19:23.101Z,5.68
2023-02-18T10:21:51.045Z,6.30
2023-02-18T10:24:21.193Z,6.63
2023-02-18T10:26:49.220Z,6.10
2023-02-18T10:29:21.415Z,6.88
2023-02-18T10:31:53.467Z,7.03
2023-02-18T10:34:41.606Z,6.65
2023-02-18T10:37:27.672Z,6.72
2023-02-18T10:40:07.735Z,6.93
2023-02-18T10:42:53.964Z,6.78
2023-02-18T10:45:27.358Z,6.68
2023-02-18T10:48:15.068Z,7.03
2023-02-18T10:50:43.632Z,6.70
2023-02-18T10:53:22.959Z,6.95
2023-02-18T10:55:50.461Z,6.25
2023-02-18T10:58:24.372Z,7.28
2023-02-18T11:00:52.241Z,7.53
2023-02-18T11:03:21.087Z,7.80
2023-02-18T11:05:49.698Z,7.22
2023-02-18T11:08:25.296Z,6.50
2023-02-18T11:10:53.451Z,7.20
2023-02-18T11:13:28.587Z,6.43
2023-02-18T11:18:23.449Z,7.00
2023-02-18T11:21:01.296Z,6.65
2023-02-18T11:23:28.909Z,6.72
2023-02-18T11:25:59.407Z,6.82
2023-02-18T11:28:44.003Z,6.63
2023-02-18T11:31:17.707Z,6.83
2023-02-18T11:33:49.254Z,6.50
2023-02-18T11:36:32.788Z,6.55
2023-02-18T11:39:00.372Z,6.93
2023-02-18T11:41:36.394Z,6.90
2023-02-18T11:44:05.222Z,6.22
2023-02-18T11:46:32.682Z,6.70
2023-02-18T11:49:21.274Z,6.57
2023-02-18T11:51:49.494Z,6.30
2023-02-18T11:54:23.248Z,6.80
2023-02-18T11:56:58.705Z,6.57
2023-02-18T11:59:26.704Z,6.80
2023-02-18T12:01:58.247Z,6.63
2023-02-18T12:04:29.839Z,6.78
2023-02-18T12:07:06.548Z,6.78
2023-02-18T12:09:44.188Z,6.40
2023-02-18T12:12:16.854Z,7.07
2023-02-18T12:14:45.055Z,6.57
2023-02-18T12:17:12.534Z,5.82
2023-02-18T12:19:55.413Z,6.63
2023-02-18T12:22:29.173Z,5.70
2023-02-18T12:24:56.661Z,5.68
2023-02-18T12:27:36.274Z,5.68
2023-02-18T12:30:04.520Z,6.18
2023-02-18T12:32:40.966Z,6.10
2023-02-18T12:35:11.499Z,5.93
2023-02-18T12:37:44.700Z,5.95
2023-02-18T12:40:21.246Z,6.30
2023-02-18T12:42:48.798Z,7.10
2023-02-18T12:45:34.951Z,6.28
2023-02-18T12:48:02.369Z,6.00
2023-02-18T12:50:50.048Z,6.22
2023-02-18T12:53:23.469Z,6.20
2023-02-18T12:56:06.229Z,6.00
2023-02-18T12:58:43.039Z,5.18
2023-02-18T13:01:10.627Z,6.00
2023-02-18T13:03:47.272Z,6.03
2023-02-18T13:06:26.924Z,6.18
2023-02-18T13:09:12.722Z,5.75
2023-02-18T13:11:40.141Z,5.45
2023-02-18T13:14:21.842Z,5.63
2023-02-18T13:16:51.838Z,5.63
2023-02-18T13:19:34.054Z,6.03
2023-02-18T13:22:04.659Z,6.13
2023-02-18T13:24:32.131Z,5.25
2023-02-18T13:27:04.072Z,5.63
2023-02-18T13:29:31.468Z,5.40
2023-02-18T13:32:07.874Z,5.25
2023-02-18T13:34:39.704Z,5.75
2023-02-18T13:37:29.162Z,5.20
2023-02-18T13:39:58.060Z,5.57
2023-02-18T13:42:25.465Z,5.22
2023-02-18T13:44:55.860Z,4.88
2023-02-18T13:47:42.999Z,5.30
2023-02-18T13:50:28.511Z,5.18
2023-02-18T13:53:08.039Z,5.53
2023-02-18T13:55:40.129Z,5.68
2023-02-18T13:58:15.099Z,4.95
2023-02-18T14:00:47.575Z,5.25
2023-02-18T14:03:34.095Z,5.75
2023-02-18T14:06:01.590Z,5.15
2023-02-18T14:08:39.956Z,5.60
2023-02-18T14:11:13.332Z,5.43
2023-02-18T14:13:50.822Z,5.53
2023-02-18T14:16:20.006Z,5.18
2023-02-18T14:18:47.367Z,5.40
2023-02-18T14:21:14.796Z,5.22
2023-02-18T14:23:43.590Z,5.22
2023-02-18T14:26:11.068Z,4.90
2023-02-18T14:28:41.488Z,5.30
2023-02-18T14:31:30.092Z,5.03
2023-02-18T14:34:10.237Z,5.10
2023-02-18T14:36:42.213Z,6.72
2023-02-18T14:39:26.268Z,5.63
2023-02-18T14:41:56.720Z,5.50
2023-02-18T14:44:34.018Z,5.25
2023-02-18T14:47:13.802Z,5.22
2023-02-18T14:49:45.705Z,5.82
2023-02-18T14:52:18.693Z,5.43
2023-02-18T14:54:46.688Z,6.10
2023-02-18T14:57:16.941Z,5.85
2023-02-18T14:59:46.879Z,5.80
2023-02-18T15:02:21.369Z,5.78
2023-02-18T15:04:50.632Z,5.63
2023-02-18T15:07:19.862Z,5.80
2023-02-18T15:09:50.861Z,7.20
2023-02-18T15:12:20.398Z,6.15
2023-02-18T15:14:49.263Z,5.20
2023-02-18T15:17:21.391Z,5.22
2023-02-18T15:19:51.383Z,6.07
2023-02-18T15:22:23.088Z,5.68
2023-02-18T15:24:51.482Z,6.03
2023-02-18T15:27:27.271Z,5.85
2023-02-18T15:29:58.904Z,5.80
2023-02-18T15:32:27.630Z,5.38
2023-02-18T15:35:01.877Z,6.78
2023-02-18T15:37:30.035Z,7.67
2023-02-18T15:39:57.521Z,7.18
2023-02-18T15:42:29.789Z,5.53
2023-02-18T15:44:58.950Z,7.03
2023-02-18T15:47:26.534Z,6.57
2023-02-18T15:49:55.016Z,6.15
2023-02-18T15:52:32.854Z,5.90
2023-02-18T15:55:12.285Z,6.78
2023-02-18T15:57:40.039Z,6.43
2023-02-18T16:00:16.029Z,7.13
2023-02-18T16:02:54.417Z,7.78
2023-02-18T16:05:25.178Z,6.55
2023-02-18T16:07:53.941Z,7.18
2023-02-18T16:10:36.182Z,6.47
2023-02-18T16:13:04.692Z,6.95
2023-02-18T16:15:42.435Z,6.22
2023-02-18T16:18:22.086Z,6.80
2023-02-18T16:21:00.038Z,6.90
2023-02-18T16:23:31.405Z,6.15
2023-02-18T16:26:09.923Z,6.32
2023-02-18T16:28:37.836Z,6.53
2023-02-18T16:31:05.319Z,7.07
2023-02-18T16:33:32.765Z,6.85
2023-02-18T16:36:00.217Z,6.93
2023-02-18T16:38:27.722Z,7.05
2023-02-18T16:40:55.510Z,5.90
2023-02-18T16:43:24.709Z,5.85
2023-02-18T16:45:53.309Z,5.70
2023-02-18T16:48:34.704Z,6.43
2023-02-18T16:51:04.063Z,7.20
2023-02-18T16:53:31.638Z,6.07
2023-02-18T16:55:59.172Z,6.65
2023-02-18T16:58:26.605Z,6.40
2023-02-18T17:00:54.202Z,6.18
2023-02-18T17:03:22.291Z,6.05
2023-02-18T17:05:49.805Z,6.40
2023-02-18T17:08:24.699Z,6.60
2023-02-18T17:10:54.030Z,6.32
2023-02-18T17:13:23.192Z,6.20
2023-02-18T17:15:52.182Z,6.55
2023-02-18T17:18:19.966Z,6.80
2023-02-18T17:20:48.935Z,6.25
2023-02-18T17:23:17.189Z,6.35
2023-02-18T17:25:45.661Z,6.70
2023-02-18T17:28:13.178Z,6.00
2023-02-18T17:30:41.613Z,6.00
2023-02-18T17:33:12.829Z,6.57
2023-02-18T17:35:40.325Z,6.15
2023-02-18T17:38:15.026Z,6.45
2023-02-18T17:40:42.590Z,6.35
2023-02-18T17:43:13.097Z,6.03
2023-02-18T17:45:43.008Z,6.47
2023-02-18T17:48:10.962Z,6.28
2023-02-18T17:50:38.407Z,6.22
2023-02-18T17:53:05.903Z,6.50
2023-02-18T17:55:34.601Z,6.72
2023-02-18T17:58:02.074Z,6.68
2023-02-18T18:00:35.276Z,6.85
2023-02-18T18:03:03.245Z,6.70
2023-02-18T18:05:33.150Z,6.65
2023-02-18T18:08:01.294Z,6.78
2023-02-18T18:10:32.064Z,7.47
2023-02-18T18:13:00.936Z,6.70
2023-02-18T18:15:34.227Z,7.00
2023-02-18T18:18:02.098Z,7.05
2023-02-18T18:20:30.492Z,7.10
2023-02-18T18:22:58.770Z,7.25
2023-02-18T18:25:27.893Z,7.32
2023-02-18T18:27:55.733Z,7.53
2023-02-18T18:30:24.790Z,7.55
2023-02-18T18:32:52.545Z,6.75
2023-02-18T18:35:24.784Z,8.35
2023-02-18T18:37:52.315Z,9.40
2023-02-18T18:40:20.639Z,9.50
2023-02-18T18:42:48.506Z,8.07
2023-02-18T18:45:17.950Z,7.78
2023-02-18T18:47:47.782Z,8.13
2023-02-18T18:50:15.535Z,8.30
2023-02-18T18:52:43.678Z,8.27
2023-02-18T18:55:20.090Z,7.78
2023-02-18T18:57:47.774Z,8.45
2023-02-18T19:00:16.538Z,8.68
2023-02-18T19:02:44.086Z,8.45
2023-02-18T19:05:22.643Z,8.63
2023-02-18T19:07:50.347Z,8.48
2023-02-18T19:10:18.331Z,9.45
2023-02-18T19:12:45.874Z,8.93
2023-02-18T19:15:14.822Z,8.93
2023-02-18T19:17:46.265Z,8.63
2023-02-18T19:20:15.342Z,8.65
2023-02-18T19:22:42.873Z,8.55
2023-02-18T19:25:10.555Z,8.68
2023-02-18T19:27:38.843Z,8.43
2023-02-18T19:30:06.926Z,8.65
2023-02-18T19:32:34.543Z,9.35
2023-02-18T19:35:02.239Z,9.35
2023-02-18T19:37:32.832Z,8.75
2023-02-18T19:40:00.471Z,8.85
2023-02-18T19:42:28.018Z,9.02
2023-02-18T19:44:56.217Z,10.43
2023-02-18T19:47:24.765Z,11.15
2023-02-18T19:49:52.554Z,11.05
2023-02-18T19:52:20.774Z,9.77
2023-02-18T19:54:48.507Z,9.43
2023-02-18T19:57:15.932Z,9.18
2023-02-18T19:59:43.511Z,10.07
2023-02-18T20:02:15.163Z,10.55
2023-02-18T20:04:43.271Z,9.68
2023-02-18T20:07:11.525Z,9.20
2023-02-18T20:09:39.064Z,10.02
2023-02-18T20:12:06.896Z,10.63
2023-02-18T20:14:34.554Z,10.95
2023-02-18T20:17:01.968Z,10.90
2023-02-18T20:19:31.950Z,11.10
2023-02-18T20:22:00.758Z,10.93
2023-02-18T20:24:29.607Z,10.02
2023-02-18T20:26:57.857Z,9.88
2023-02-18T20:29:25.817Z,9.40
2023-02-18T20:31:53.714Z,9.15
2023-02-18T20:34:21.423Z,8.55
2023-02-18T20:36:52.205Z,8.98
2023-02-18T20:39:20.226Z,8.63
2023-02-18T20:41:48.910Z,8.10
2023-02-18T20:44:17.220Z,8.35
2023-02-18T20:46:45.061Z,9.32
2023-02-18T20:49:13.836Z,8.60
2023-02-18T20:51:41.600Z,8.85
2023-02-18T20:54:10.090Z,8.75
2023-02-18T20:56:38.347Z,8.50
2023-02-18T20:59:05.977Z,8.98
2023-02-18T21:01:33.515Z,7.88
2023-02-18T21:04:00.959Z,7.25
2023-02-18T21:06:29.399Z,6.45
2023-02-18T21:08:56.825Z,6.97
2023-02-18T21:11:25.763Z,7.28
2023-02-18T21:13:54.368Z,7.97
2023-02-18T21:16:23.199Z,7.95
2023-02-18T21:18:50.892Z,7.85
2023-02-18T21:21:20.394Z,7.22
2023-02-18T21:23:47.820Z,8.05
2023-02-18T21:26:16.979Z,7.78
2023-02-18T21:28:47.831Z,8.30
2023-02-18T21:31:16.806Z,7.90
2023-02-18T21:33:44.370Z,7.55
2023-02-18T21:36:14.074Z,8.50
2023-02-18T21:38:44.600Z,8.32
2023-02-18T21:41:12.554Z,8.23
2023-02-18T21:43:40.342Z,7.57
2023-02-18T21:46:14.195Z,7.63
2023-02-18T21:49:00.474Z,7.07
2023-02-18T21:51:46.679Z,7.72
2023-02-18T21:54:16.614Z,7.60
2023-02-18T21:56:44.165Z,6.72
2023-02-18T21:59:11.569Z,8.18
2023-02-18T22:01:39.538Z,7.85
2023-02-18T22:04:06.982Z,8.05
2023-02-18T22:06:34.729Z,7.85
2023-02-18T22:09:02.568Z,8.10
2023-02-18T22:11:30.685Z,7.97
2023-02-18T22:13:58.259Z,7.85
2023-02-18T22:16:29.092Z,8.23
2023-02-18T22:18:57.625Z,8.38
2023-02-18T22:21:25.093Z,8.18
2023-02-18T22:23:52.636Z,8.18
2023-02-18T22:26:20.612Z,8.73
2023-02-18T22:28:52.254Z,8.50
2023-02-18T22:31:19.845Z,8.30
2023-02-18T22:33:50.246Z,7.60
2023-02-18T22:36:18.039Z,8.23
2023-02-18T22:38:45.544Z,8.00
2023-02-18T22:41:14.075Z,8.07
2023-02-18T22:43:41.981Z,7.53
2023-02-18T22:46:11.071Z,8.30
2023-02-18T22:48:38.899Z,7.85
2023-02-18T22:51:06.362Z,8.43
2023-02-18T22:53:34.510Z,8.30
2023-02-18T22:56:03.040Z,9.00
2023-02-18T22:58:30.481Z,8.18
2023-02-18T23:00:57.924Z,8.15
2023-02-18T23:03:26.869Z,7.97
2023-02-18T23:05:54.840Z,8.35
2023-02-18T23:08:22.671Z,8.27
2023-02-18T23:10:59.854Z,7.55
2023-02-18T23:13:27.342Z,7.63
2023-02-18T23:16:01.577Z,8.40
2023-02-18T23:18:29.469Z,8.23
2023-02-18T23:21:20.823Z,7.55
2023-02-18T23:23:50.309Z,8.23
2023-02-18T23:26:18.341Z,8.07
2023-02-18T23:28:48.810Z,7.95
2023-02-18T23:31:26.139Z,8.00
2023-02-18T23:33:54.877Z,7.97
2023-02-18T23:36:23.536Z,7.53
2023-02-18T23:38:51.905Z,7.75
2023-02-18T23:41:19.722Z,8.73
2023-02-18T23:43:47.272Z,7.97
2023-02-18T23:46:15.295Z,7.78
2023-02-18T23:48:42.834Z,6.90
2023-02-18T23:51:11.305Z,8.02
2023-02-18T23:53:39.016Z,7.55
2023-02-18T23:56:06.760Z,7.82
2023-02-18T23:58:34.696Z,7.57
